Time;durP1;ratioP1;P1;durP2;ratioP2;P2;SDS_P1;SDS_P2;PMS_P1;PMS_P2;Temp;Humidity;BMP_temperature;BMP_pressure;BME280_temperature;BME280_humidity;BME280_pressure;Samples;Min_cycle;Max_cycle;Signal;HPM_P1;HPM_P2
2021/04/21 00:01:46;;;;;;;29.30;20.73;;;;;;;13.08;48.70;101572.97;4881507;28;114087;-73
2021/04/21 00:04:15;;;;;;;34.13;22.25;;;;;;;13.07;48.95;101581.84;4896290;28;124649;-73
2021/04/21 00:06:43;;;;;;;30.33;21.77;;;;;;;13.00;48.80;101571.50;4902049;28;124898;-73
2021/04/21 00:09:15;;;;;;;30.77;22.52;;;;;;;12.98;49.00;101573.34;4880665;28;113199;-73
2021/04/21 00:11:42;;;;;;;34.83;22.90;;;;;;;12.95;48.59;101568.16;4896913;28;113306;-73
2021/04/21 00:14:11;;;;;;;32.10;22.60;;;;;;;12.93;49.03;101575.34;4898302;28;124236;-73
2021/04/21 00:16:38;;;;;;;33.03;23.35;;;;;;;12.91;48.90;101577.22;4902367;28;123162;-73
2021/04/21 00:19:05;;;;;;;29.92;22.33;;;;;;;12.89;48.98;101571.09;4899544;28;114331;-72
2021/04/21 00:21:33;;;;;;;32.38;23.30;;;;;;;12.87;49.06;101572.97;4899328;28;112956;-72
2021/04/21 00:24:02;;;;;;;31.83;23.83;;;;;;;12.85;49.15;101572.16;4882024;28;122931;-73
2021/04/21 00:26:30;;;;;;;35.05;23.65;;;;;;;12.82;49.37;101567.81;4902192;28;123762;-73
2021/04/21 00:28:57;;;;;;;33.35;24.10;;;;;;;12.81;49.35;101573.22;4894897;28;113885;-73
2021/04/21 00:31:25;;;;;;;36.33;23.75;;;;;;;12.79;49.33;101572.41;4899891;28;113482;-73
2021/04/21 00:33:58;;;;;;;35.85;23.60;;;;;;;12.76;49.22;101561.91;4889964;28;124315;-73
2021/04/21 00:36:27;;;;;;;34.97;25.17;;;;;;;12.73;49.38;101567.34;4879250;28;124004;-73
2021/04/21 00:38:55;;;;;;;36.38;25.02;;;;;;;12.72;49.25;101565.66;4898703;28;115488;-73
2021/04/21 00:42:01;;;;;;;37.13;25.27;;;;;;;12.68;49.40;101566.69;4901737;28;114984;-73
2021/04/21 00:44:46;;;;;;;42.33;26.00;;;;;;;12.65;49.50;101575.66;4887147;28;124806;-73
2021/04/21 00:47:21;;;;;;;37.88;25.70;;;;;;;12.61;49.68;101572.25;4898838;28;123239;-73
2021/04/21 00:49:57;;;;;;;35.15;24.52;;;;;;;12.57;49.39;101578.63;4897216;28;114356;-73
2021/04/21 00:52:38;;;;;;;35.47;25.52;;;;;;;12.52;49.39;101572.63;4895944;28;113679;-73
2021/04/21 00:55:20;;;;;;;39.55;25.65;;;;;;;12.49;49.50;101574.56;4885285;28;123477;-73
2021/04/21 00:58:09;;;;;;;36.72;25.77;;;;;;;12.43;49.73;101575.66;4900120;28;123135;-73
2021/04/21 01:00:43;;;;;;;43.20;27.77;;;;;;;12.39;49.44;101574.06;4878560;28;113925;-73
2021/04/21 01:03:21;;;;;;;38.25;27.23;;;;;;;12.36;50.00;101574.22;4901702;28;114199;-74
2021/04/21 01:05:56;;;;;;;41.22;27.88;;;;;;;12.32;50.03;101578.78;4898860;28;123799;-73
2021/04/21 01:08:27;;;;;;;35.58;26.77;;;;;;;12.30;49.92;101574.44;4893999;28;124651;-73
2021/04/21 01:11:19;;;;;;;37.15;27.08;;;;;;;12.25;49.94;101567.53;4880126;28;113801;-73
2021/04/21 01:13:51;;;;;;;43.83;28.30;;;;;;;12.22;49.96;101573.00;4881165;28;114283;-73
2021/04/21 01:16:22;;;;;;;45.67;29.50;;;;;;;12.18;50.07;101576.66;4899016;28;124792;-73
2021/04/21 01:18:51;;;;;;;40.53;28.00;;;;;;;12.15;50.12;101574.16;4893877;28;123263;-73
2021/04/21 01:21:27;;;;;;;40.67;27.73;;;;;;;12.13;50.53;101570.69;4897423;28;113316;-73
2021/04/21 01:24:25;;;;;;;39.88;27.83;;;;;;;12.11;50.41;101564.59;4895879;28;113028;-73
2021/04/21 01:27:02;;;;;;;40.35;28.15;;;;;;;12.08;50.64;101564.69;4882448;28;125488;-73
2021/04/21 01:29:34;;;;;;;39.22;28.15;;;;;;;12.07;50.44;101568.25;4898062;28;123884;-73
2021/04/21 01:32:10;;;;;;;39.42;27.23;;;;;;;12.05;50.36;101564.81;4864201;28;114446;-73
2021/04/21 01:34:41;;;;;;;42.00;27.80;;;;;;;12.02;50.71;101559.63;4881632;28;114439;-73
2021/04/21 01:37:09;;;;;;;42.60;28.30;;;;;;;12.00;50.26;101564.16;4902297;28;123543;-73
2021/04/21 01:39:41;;;;;;;43.08;29.35;;;;;;;11.97;50.57;101561.59;4900095;28;124551;-73
2021/04/21 01:42:11;;;;;;;40.47;28.02;;;;;;;11.95;50.46;101558.16;4897346;28;113635;-73
2021/04/21 01:44:40;;;;;;;41.42;27.48;;;;;;;11.93;50.64;101554.69;4900564;28;115251;-73
2021/04/21 01:47:11;;;;;;;40.80;27.67;;;;;;;11.90;50.87;101560.09;4904350;28;123311;-73
2021/04/21 01:49:48;;;;;;;42.58;28.20;;;;;;;11.87;50.84;101558.41;4898118;28;124352;-73
2021/04/21 01:52:21;;;;;;;41.05;27.25;;;;;;;11.83;50.81;101555.00;4894254;28;114656;-73
2021/04/21 01:54:53;;;;;;;40.58;28.33;;;;;;;11.79;50.93;101558.72;4895329;28;114351;-73
2021/04/21 01:57:34;;;;;;;40.30;28.23;;;;;;;11.77;51.06;101563.22;4897387;28;123342;-73
2021/04/21 02:00:07;;;;;;;42.67;29.00;;;;;;;11.74;51.04;101565.97;4896876;28;123960;-73
2021/04/21 02:02:44;;;;;;;40.45;28.13;;;;;;;11.73;50.81;101569.53;4898386;28;114921;-73
2021/04/21 02:05:20;;;;;;;40.95;28.65;;;;;;;11.69;51.22;101567.94;4897142;28;114465;-73
2021/04/21 02:08:10;;;;;;;42.25;29.05;;;;;;;11.67;51.04;101569.78;4896817;28;123691;-73
2021/04/21 02:11:05;;;;;;;41.03;27.70;;;;;;;11.61;51.15;101565.56;4877877;28;124161;-73
2021/04/21 02:13:44;;;;;;;41.25;28.08;;;;;;;11.59;51.11;101569.22;4878779;28;114664;-73
2021/04/21 02:16:27;;;;;;;43.35;27.88;;;;;;;11.56;51.35;101571.97;4894748;28;114488;-73
2021/04/21 02:19:35;;;;;;;42.85;27.85;;;;;;;11.50;51.44;101568.63;4899490;28;125334;-73
2021/04/21 02:22:19;;;;;;;40.78;26.98;;;;;;;11.50;51.32;101571.28;4876270;28;123792;-73
2021/04/21 02:25:02;;;;;;;44.85;29.00;;;;;;;11.46;51.62;101567.00;4895915;28;114649;-73
2021/04/21 02:27:59;;;;;;;42.50;28.15;;;;;;;11.46;51.56;101567.00;4877660;28;115644;-73
2021/04/21 02:30:37;;;;;;;41.95;28.10;;;;;;;11.45;51.83;101570.59;4896538;28;123995;-73
2021/04/21 02:33:13;;;;;;;40.92;27.40;;;;;;;11.43;52.03;101566.25;4896006;28;123207;-73
2021/04/21 02:35:48;;;;;;;;;;;;;;;11.42;51.21;101570.72;4881988;28;113972;-74
2021/04/21 02:38:28;;;;;;;43.10;28.15;;;;;;;11.41;51.83;101568.97;4894330;28;113949;-74
2021/04/21 02:41:01;;;;;;;40.22;27.88;;;;;;;11.41;52.24;101573.41;4879672;28;123413;-73
2021/04/21 02:43:48;;;;;;;45.42;28.02;;;;;;;11.43;52.33;101568.91;4896690;28;124188;-73
2021/04/21 02:46:28;;;;;;;42.55;27.67;;;;;;;11.44;52.52;101571.50;4894474;28;113265;-74
2021/04/21 02:49:34;;;;;;;42.30;28.48;;;;;;;11.47;52.49;101571.41;4894046;28;114608;-73
2021/04/21 02:52:17;;;;;;;44.20;28.33;;;;;;;11.52;52.55;101570.38;4892625;28;124761;-73
2021/04/21 02:55:14;;;;;;;41.15;27.20;;;;;;;11.54;52.54;101568.53;4896657;28;124058;-73
2021/04/21 02:58:07;;;;;;;43.22;28.08;;;;;;;11.56;52.53;101566.66;4893427;28;114925;-73
2021/04/21 03:00:38;;;;;;;45.80;27.55;;;;;;;11.59;52.70;101566.56;4893666;28;114685;-74
2021/04/21 03:03:26;;;;;;;40.97;26.73;;;;;;;11.60;52.51;101568.28;4895315;28;122526;-73
2021/04/21 03:06:10;;;;;;;39.40;27.60;;;;;;;11.62;52.53;101566.44;4894869;28;123863;-74
2021/04/21 03:08:44;;;;;;;38.38;26.60;;;;;;;11.64;52.59;101562.81;4899898;28;114056;-74
2021/04/21 03:11:16;;;;;;;42.20;27.85;;;;;;;11.66;52.94;101565.41;4895310;28;114334;-73
2021/04/21 03:13:49;;;;;;;39.85;26.75;;;;;;;11.67;52.68;101564.47;4896954;28;123523;-74
2021/04/21 03:16:19;;;;;;;42.88;27.52;;;;;;;11.68;52.77;101560.91;4875679;28;124138;-74
2021/04/21 03:18:48;;;;;;;42.85;26.30;;;;;;;11.68;52.73;101566.22;4894542;28;115954;-74
2021/04/21 03:21:26;;;;;;;39.38;27.88;;;;;;;11.67;52.68;101564.47;4896300;28;114687;-74
2021/04/21 03:24:03;;;;;;;39.88;26.20;;;;;;;11.69;52.50;101563.50;4894873;28;123971;-74
2021/04/21 03:26:30;;;;;;;39.47;26.80;;;;;;;11.72;52.89;101559.88;4897260;28;123889;-74
2021/04/21 03:29:00;;;;;;;38.30;26.27;;;;;;;11.73;52.91;101564.25;4894191;28;114822;-74
2021/04/21 03:31:30;;;;;;;39.55;26.88;;;;;;;11.75;52.89;101573.00;4878339;28;112812;-74
2021/04/21 03:34:02;;;;;;;35.55;25.20;;;;;;;11.75;52.95;101564.19;4893249;28;125624;-73
2021/04/21 03:36:29;;;;;;;40.30;26.52;;;;;;;11.75;52.88;101565.03;4887907;28;123643;-74
2021/04/21 03:38:56;;;;;;;38.42;26.75;;;;;;;11.75;52.89;101562.38;4878858;28;113930;-74
2021/04/21 03:41:23;;;;;;;38.95;26.77;;;;;;;11.73;52.91;101569.53;4895176;28;114429;-74
2021/04/21 03:43:50;;;;;;;39.20;27.23;;;;;;;11.74;52.95;101568.63;4893668;28;124297;-74
2021/04/21 03:46:17;;;;;;;37.42;25.67;;;;;;;11.73;53.20;101561.59;4894151;28;123967;-74
2021/04/21 03:48:44;;;;;;;40.05;26.17;;;;;;;11.74;53.06;101560.66;4880258;28;114108;-74
2021/04/21 03:51:13;;;;;;;36.90;27.02;;;;;;;11.73;52.89;101553.63;4882456;28;112093;-73
2021/04/21 03:53:42;;;;;;;38.33;25.58;;;;;;;11.72;52.85;101562.53;4896996;28;123936;-74
2021/04/21 03:56:18;;;;;;;39.03;26.52;;;;;;;11.71;52.83;101560.78;4898247;28;122726;-74
2021/04/21 03:58:47;;;;;;;41.45;26.65;;;;;;;11.72;53.19;101562.53;4901694;28;115094;-73
2021/04/21 04:01:16;;;;;;;42.50;26.60;;;;;;;11.68;53.08;101555.59;4900597;28;113569;-73
2021/04/21 04:03:50;;;;;;;39.72;26.23;;;;;;;11.66;52.83;101557.47;4900740;28;123276;-74
2021/04/21 04:06:30;;;;;;;39.03;26.45;;;;;;;11.64;52.80;101559.28;4898997;28;123887;-74
2021/04/21 04:09:03;;;;;;;39.08;26.60;;;;;;;11.64;53.02;101559.28;4901507;28;114060;-74
2021/04/21 04:11:42;;;;;;;43.00;27.38;;;;;;;11.64;53.19;101564.59;4899478;28;115984;-74
2021/04/21 04:14:19;;;;;;;39.77;27.53;;;;;;;11.62;53.33;101555.81;4899731;28;123308;-74
2021/04/21 04:16:48;;;;;;;42.95;27.90;;;;;;;11.63;53.26;101558.41;4896130;28;124095;-74
2021/04/21 04:19:17;;;;;;;37.85;27.63;;;;;;;11.63;53.43;101562.88;4883520;28;113900;-74
2021/04/21 04:21:50;;;;;;;37.13;27.58;;;;;;;11.62;53.29;101567.31;4881236;28;113259;-74
2021/04/21 04:24:21;;;;;;;40.63;28.02;;;;;;;11.63;53.20;101565.53;4895420;28;123940;-74
2021/04/21 04:26:48;;;;;;;42.30;28.95;;;;;;;11.62;53.45;101566.44;4881925;28;124302;-74
2021/04/21 04:29:15;;;;;;;40.55;28.70;;;;;;;11.63;53.63;101568.19;4883044;28;114799;-74
2021/04/21 04:31:42;;;;;;;40.53;28.45;;;;;;;11.61;53.30;101572.69;4900217;28;114118;-73
2021/04/21 04:34:09;;;;;;;42.38;28.90;;;;;;;11.59;53.46;101582.50;4904147;28;123277;-74
2021/04/21 04:36:38;;;;;;;43.33;28.80;;;;;;;11.59;53.47;101574.53;4894949;28;122519;-74
2021/04/21 04:39:08;;;;;;;44.58;30.00;;;;;;;11.58;53.92;101575.44;4899686;28;114770;-73
2021/04/21 04:41:36;;;;;;;46.35;29.83;;;;;;;11.56;53.70;101577.28;4899374;28;112904;-73
2021/04/21 04:44:03;;;;;;;43.47;30.40;;;;;;;11.52;53.89;101586.28;4882053;28;123647;-74
2021/04/21 04:46:33;;;;;;;47.22;30.70;;;;;;;11.48;53.74;101570.47;4892387;28;124587;-74
2021/04/21 04:49:10;;;;;;;43.72;31.70;;;;;;;11.46;53.91;101577.63;4896608;28;113970;-74
2021/04/21 04:51:41;;;;;;;46.47;32.20;;;;;;;11.44;53.99;101584.78;4880256;28;113479;-74
2021/04/21 04:54:10;;;;;;;49.10;32.00;;;;;;;11.40;54.19;101580.50;4897902;28;124413;-74
2021/04/21 04:56:38;;;;;;;46.20;31.88;;;;;;;11.38;54.00;101579.72;4902177;28;124666;-74
2021/04/21 04:59:08;;;;;;;42.05;31.83;;;;;;;11.34;54.17;101594.00;4899452;28;115188;-74
2021/04/21 05:01:57;;;;;;;47.28;32.05;;;;;;;11.31;54.21;101594.09;4902131;28;113216;-74
2021/04/21 05:04:38;;;;;;;46.28;33.17;;;;;;;11.27;54.17;101595.13;4881495;28;123803;-74
2021/04/21 05:07:12;;;;;;;44.78;32.20;;;;;;;11.24;54.62;101595.22;4904213;28;123090;-74
2021/04/21 05:09:41;;;;;;;51.13;34.20;;;;;;;11.23;54.48;101596.19;4892474;28;113868;-74
2021/04/21 05:12:11;;;;;;;50.05;33.78;;;;;;;11.24;54.34;101608.50;4900436;28;113353;-74
2021/04/21 05:14:39;;;;;;;51.13;34.20;;;;;;;11.26;54.63;101614.59;4899268;28;125080;-74
2021/04/21 05:17:26;;;;;;;45.70;34.90;;;;;;;11.28;54.44;101615.41;4898642;28;123712;-74
2021/04/21 05:20:11;;;;;;;49.63;34.97;;;;;;;11.30;54.77;101608.28;4899110;28;116844;-74
2021/04/21 05:22:53;;;;;;;48.93;36.37;;;;;;;11.32;54.59;101611.75;4892681;28;114458;-74
2021/04/21 05:25:58;;;;;;;46.13;35.00;;;;;;;11.33;54.63;101613.47;4881213;28;123044;-74
2021/04/21 05:28:55;;;;;;;51.90;36.08;;;;;;;11.34;54.55;101620.53;4878954;28;124547;-74
2021/04/21 05:31:59;;;;;;;49.00;35.25;;;;;;;11.34;54.52;101615.22;4886122;28;113631;-74
2021/04/21 05:34:57;;;;;;;49.05;36.17;;;;;;;11.35;54.60;101616.94;4885344;28;113650;-74
2021/04/21 05:38:01;;;;;;;53.50;38.40;;;;;;;11.35;54.32;101611.63;4890389;28;123639;-74
2021/04/21 05:40:55;;;;;;;53.08;38.58;;;;;;;11.35;54.81;101611.63;4896830;28;124312;-74
2021/04/21 05:43:55;;;;;;;51.00;37.90;;;;;;;11.36;54.61;101616.03;4883769;28;114477;-73
2021/04/21 05:46:47;;;;;;;55.17;39.13;;;;;;;11.40;54.97;101620.28;4900605;28;114012;-74
2021/04/21 05:49:36;;;;;;;51.10;39.30;;;;;;;11.44;55.27;101616.59;4902975;28;123211;-74
2021/04/21 05:52:42;;;;;;;57.33;41.67;;;;;;;11.48;54.92;101618.22;4902775;28;123929;-74
2021/04/21 05:55:51;;;;;;;54.33;39.47;;;;;;;11.55;54.71;101623.31;4877151;28;115331;-74
2021/04/21 05:58:36;;;;;;;53.65;38.53;;;;;;;11.61;55.11;101623.09;4902047;28;115366;-73
2021/04/21 06:01:12;;;;;;;54.15;39.65;;;;;;;11.65;55.15;101616.75;4899322;28;124869;-74
2021/04/21 06:03:41;;;;;;;61.75;41.20;;;;;;;11.71;55.48;101619.16;4912606;28;124269;-74
2021/04/21 06:06:08;;;;;;;56.40;40.08;;;;;;;11.77;55.74;101618.06;4902952;28;113319;-74
2021/04/21 06:08:34;;;;;;;55.40;40.25;;;;;;;11.81;55.53;101620.56;4899268;28;113743;-74
2021/04/21 06:11:01;;;;;;;54.58;41.33;;;;;;;11.87;56.14;101630.94;4904145;28;123771;-73
2021/04/21 06:13:29;;;;;;;54.25;40.50;;;;;;;11.96;56.17;101631.53;4905955;28;123733;-73
2021/04/21 06:15:57;;;;;;;55.30;41.08;;;;;;;12.04;56.08;101626.81;4910420;28;114453;-73
2021/04/21 06:18:24;;;;;;;53.53;39.58;;;;;;;12.13;56.24;101637.09;4908508;28;113871;-73
2021/04/21 06:20:51;;;;;;;57.38;38.55;;;;;;;12.20;56.29;101632.38;4907442;28;124068;-72
2021/04/21 06:23:23;;;;;;;54.95;39.88;;;;;;;12.29;56.73;101633.81;4903290;28;126204;-72
2021/04/21 06:26:03;;;;;;;51.70;37.22;;;;;;;12.40;56.48;101634.25;4904233;28;114726;-73
2021/04/21 06:28:30;;;;;;;52.97;39.47;;;;;;;12.50;56.54;101635.59;4903197;28;114037;-73
2021/04/21 06:31:12;;;;;;;49.47;37.63;;;;;;;12.59;56.54;101629.94;4909541;28;123837;-73
2021/04/21 06:33:41;;;;;;;50.80;39.50;;;;;;;12.72;56.81;101635.59;4902042;28;125133;-73
2021/04/21 06:36:10;;;;;;;49.35;36.03;;;;;;;12.85;56.54;101646.59;4906471;28;114433;-73
2021/04/21 06:38:38;;;;;;;48.03;35.47;;;;;;;12.96;56.30;101644.34;4911975;28;114866;-72
2021/04/21 06:41:06;;;;;;;45.20;34.85;;;;;;;13.07;56.05;101645.69;4911866;28;124037;-73
2021/04/21 06:43:36;;;;;;;46.67;34.53;;;;;;;13.15;56.14;101648.91;4902330;28;123169;-73
2021/04/21 06:46:10;;;;;;;43.70;33.53;;;;;;;13.24;56.17;101644.03;4915978;28;115027;-73
2021/04/21 06:48:39;;;;;;;43.90;33.97;;;;;;;13.31;56.11;101639.34;4902195;28;113892;-73
2021/04/21 06:51:18;;;;;;;46.50;34.33;;;;;;;13.39;55.73;101645.22;4893853;28;122839;-73
2021/04/21 06:53:51;;;;;;;46.08;34.13;;;;;;;13.47;55.67;101638.66;4898294;28;124321;-73
2021/04/21 06:56:34;;;;;;;42.33;33.08;;;;;;;13.55;55.61;101647.19;4911786;28;114177;-73
2021/04/21 06:59:02;;;;;;;40.30;32.85;;;;;;;13.68;55.33;101643.03;4901324;28;114061;-74
2021/04/21 07:01:31;;;;;;;46.30;34.05;;;;;;;13.79;55.23;101646.06;4909597;28;124235;-73
2021/04/21 07:04:14;;;;;;;40.70;31.90;;;;;;;13.93;55.21;101642.75;4903347;28;124231;-73
2021/04/21 07:06:47;;;;;;;41.30;30.67;;;;;;;14.08;54.87;101646.50;4895103;28;113730;-73
2021/04/21 07:09:15;;;;;;;39.63;31.55;;;;;;;14.18;54.70;101642.50;4904501;28;113770;-72
2021/04/21 07:11:42;;;;;;;41.30;31.20;;;;;;;14.27;54.42;101648.31;4919795;28;124194;-72
2021/04/21 07:14:20;;;;;;;42.63;33.30;;;;;;;14.36;54.53;101651.41;4875871;28;123634;-73
2021/04/21 07:16:52;;;;;;;38.50;30.90;;;;;;;14.47;53.91;101647.38;4893066;28;113301;-73
2021/04/21 07:19:21;;;;;;;37.90;29.58;;;;;;;14.56;54.08;101647.78;4909274;28;114600;-71
2021/04/21 07:21:48;;;;;;;36.28;26.63;;;;;;;14.67;53.50;101646.41;4910912;28;124092;-71
2021/04/21 07:24:16;;;;;;;38.42;27.77;;;;;;;14.79;53.71;101653.81;4911796;28;124144;-72
2021/04/21 07:26:49;;;;;;;29.77;23.42;;;;;;;14.88;52.96;101656.03;4910419;28;115148;-72
2021/04/21 07:29:21;;;;;;;27.75;22.55;;;;;;;14.97;52.75;101650.22;4892183;28;113567;-72
2021/04/21 07:31:49;;;;;;;33.38;23.67;;;;;;;15.09;52.23;101655.88;4906798;28;124281;-72
2021/04/21 07:34:35;;;;;;;35.45;23.95;;;;;;;15.17;52.00;101659.00;4900327;28;124397;-71
2021/04/21 07:37:02;;;;;;;33.63;25.40;;;;;;;15.26;51.54;101658.53;4920127;28;116465;-72
2021/04/21 07:39:38;;;;;;;31.92;25.98;;;;;;;15.37;51.79;101663.34;4922620;28;114645;-71
2021/04/21 07:42:15;;;;;;;37.08;27.08;;;;;;;15.49;51.67;101669.81;4888918;28;123110;-72
2021/04/21 07:44:53;;;;;;;37.05;27.70;;;;;;;15.58;51.43;101669.34;4921801;28;123781;-73
2021/04/21 07:47:25;;;;;;;37.67;29.57;;;;;;;15.63;51.53;101667.28;4897467;28;114941;-72
2021/04/21 07:50:01;;;;;;;43.03;31.50;;;;;;;15.69;51.57;101669.63;4922661;28;113916;-72
2021/04/21 07:52:31;;;;;;;42.60;34.03;;;;;;;15.75;51.68;101671.16;4905915;28;123762;-72
2021/04/21 07:55:11;;;;;;;48.10;34.47;;;;;;;15.81;51.52;101667.28;4900736;28;123033;-72
2021/04/21 07:57:39;;;;;;;42.88;32.10;;;;;;;15.90;51.25;101674.81;4920094;28;114529;-74
2021/04/21 08:00:08;;;;;;;47.03;32.72;;;;;;;15.98;50.69;101677.91;4911123;28;114371;-72
2021/04/21 08:02:44;;;;;;;42.97;32.05;;;;;;;16.05;50.52;101675.75;4908785;28;124773;-72
2021/04/21 08:05:12;;;;;;;43.13;31.73;;;;;;;16.10;50.21;101679.91;4920332;28;123874;-72
2021/04/21 08:07:41;;;;;;;43.78;32.17;;;;;;;16.14;49.92;101676.13;4918581;28;114396;-72
2021/04/21 08:10:24;;;;;;;51.45;34.03;;;;;;;16.15;49.80;101677.84;4913098;28;114299;-72
2021/04/21 08:12:52;;;;;;;49.38;32.13;;;;;;;16.19;49.72;101675.00;4894364;28;124151;-72
2021/04/21 08:15:25;;;;;;;45.58;32.22;;;;;;;16.23;49.81;101681.91;4910956;28;123805;-72
2021/04/21 08:17:58;;;;;;;45.15;31.45;;;;;;;16.28;49.45;101685.19;4872200;28;113850;-72
2021/04/21 08:20:33;;;;;;;38.22;27.98;;;;;;;16.38;49.17;101689.06;4885455;28;113721;-73
2021/04/21 08:23:21;;;;;;;35.05;26.73;;;;;;;16.51;48.65;101684.75;4892770;28;124043;-72
2021/04/21 08:25:49;;;;;;;37.55;27.25;;;;;;;16.61;48.84;101682.41;4883040;28;122955;-73
2021/04/21 08:28:15;;;;;;;34.00;25.88;;;;;;;16.70;48.35;101686.38;4896744;28;115200;-73
2021/04/21 08:30:58;;;;;;;35.38;26.65;;;;;;;16.77;48.11;101693.13;4898464;28;115708;-73
2021/04/21 08:33:27;;;;;;;37.28;26.83;;;;;;;16.87;48.53;101694.31;4914229;28;124768;-73
2021/04/21 08:35:54;;;;;;;37.22;27.42;;;;;;;16.96;48.55;101692.09;4913014;28;125221;-72
2021/04/21 08:38:21;;;;;;;35.20;27.20;;;;;;;17.05;48.76;101686.19;4914971;28;114419;-73
2021/04/21 08:40:47;;;;;;;37.03;26.77;;;;;;;17.15;48.10;101698.06;4914832;28;114349;-73
2021/04/21 08:43:16;;;;;;;34.00;26.27;;;;;;;17.25;48.03;101691.25;4900300;28;124272;-72
2021/04/21 08:45:42;;;;;;;34.58;25.88;;;;;;;17.32;47.42;101697.94;4887029;28;123577;-73
2021/04/21 08:48:12;;;;;;;34.50;26.05;;;;;;;17.41;47.79;101701.03;4893760;28;114108;-73
2021/04/21 08:50:40;;;;;;;35.10;24.45;;;;;;;17.50;47.24;101697.78;4909688;28;114453;-72
2021/04/21 08:53:08;;;;;;;31.30;25.17;;;;;;;17.56;47.00;101697.41;4910306;28;123975;-73
2021/04/21 08:55:37;;;;;;;30.10;23.88;;;;;;;17.61;46.90;101694.44;4909922;28;124209;-72
2021/04/21 08:58:04;;;;;;;32.35;25.05;;;;;;;17.65;46.80;101702.22;4919523;28;114059;-73
2021/04/21 09:00:31;;;;;;;30.45;23.02;;;;;;;17.73;45.99;101706.25;4893518;28;113155;-73
2021/04/21 09:03:00;;;;;;;30.55;24.45;;;;;;;17.78;46.14;101706.81;4927811;23;124372;-74
2021/04/21 09:05:27;;;;;;;36.58;23.20;;;;;;;17.86;46.04;101704.56;4904294;28;124161;-73
2021/04/21 09:07:54;;;;;;;31.90;24.58;;;;;;;17.91;45.68;101705.13;4919804;28;114479;-74
2021/04/21 09:10:21;;;;;;;35.22;24.70;;;;;;;17.96;45.88;101703.00;4923058;28;113767;-74
2021/04/21 09:12:47;;;;;;;31.98;24.35;;;;;;;18.02;46.49;101710.66;4910432;28;124516;-75
2021/04/21 09:15:16;;;;;;;30.23;23.52;;;;;;;18.09;46.51;101712.00;4889971;28;123151;-74
2021/04/21 09:17:48;;;;;;;29.40;22.15;;;;;;;18.19;46.57;101716.78;4901310;28;114854;-74
2021/04/21 09:20:17;;;;;;;30.17;23.70;;;;;;;18.28;46.34;101713.53;4905160;28;114623;-74
2021/04/21 09:23:06;;;;;;;26.13;21.67;;;;;;;18.38;45.71;101711.97;4880032;28;123016;-74
2021/04/21 09:25:38;;;;;;;29.17;21.70;;;;;;;18.43;44.72;101715.22;4904382;28;123930;-75
2021/04/21 09:28:05;;;;;;;29.08;22.08;;;;;;;18.44;44.90;101710.72;4896742;28;113605;-75
2021/04/21 09:30:36;;;;;;;28.13;21.70;;;;;;;18.45;44.27;101718.66;4913977;28;113863;-75
2021/04/21 09:33:05;;;;;;;27.73;21.52;;;;;;;18.48;44.08;101718.47;4886506;28;123573;-75
2021/04/21 09:35:43;;;;;;;28.63;20.48;;;;;;;18.52;44.43;101718.31;4898926;28;124532;-74
2021/04/21 09:38:31;;;;;;;24.88;20.17;;;;;;;18.59;44.85;101724.97;4911954;28;115175;-74
2021/04/21 09:41:02;;;;;;;29.50;20.63;;;;;;;18.66;44.83;101723.59;4911843;28;114276;-74
2021/04/21 09:43:31;;;;;;;25.05;18.15;;;;;;;18.73;45.10;101724.94;4900314;28;124331;-75
2021/04/21 09:46:00;;;;;;;23.20;17.05;;;;;;;18.82;44.56;101729.75;4879137;28;123661;-74
2021/04/21 09:48:34;;;;;;;20.45;17.58;;;;;;;18.89;43.78;101726.63;4887610;28;114363;-73
2021/04/21 09:51:04;;;;;;;20.58;16.75;;;;;;;18.95;42.97;101728.91;4913668;28;114084;-72
2021/04/21 09:53:34;;;;;;;20.42;16.00;;;;;;;19.00;43.70;101729.47;4896724;28;124023;-74
2021/04/21 09:56:05;;;;;;;23.17;17.40;;;;;;;19.06;43.87;101729.06;4911945;28;123790;-73
2021/04/21 09:58:46;;;;;;;22.65;16.13;;;;;;;19.12;43.51;101727.78;4896198;28;114170;-73
2021/04/21 10:01:37;;;;;;;21.23;16.70;;;;;;;19.15;43.62;101739.19;4878392;28;113836;-74
2021/04/21 10:04:27;;;;;;;21.65;15.77;;;;;;;19.19;43.40;101727.31;4905504;28;98899;-73
2021/04/21 10:06:56;;;;;;;21.15;16.85;;;;;;;19.25;43.61;101734.94;4890921;28;124172;-74
2021/04/21 10:09:33;;;;;;;20.13;16.83;;;;;;;19.30;43.35;101726.56;4912955;28;115100;-74
2021/04/21 10:12:18;;;;;;;22.77;16.75;;;;;;;19.35;43.33;101723.56;4892639;28;114529;-73
2021/04/21 10:15:01;;;;;;;22.10;16.73;;;;;;;19.40;43.27;101732.16;4906597;28;123794;-72
2021/04/21 10:17:41;;;;;;;23.60;17.05;;;;;;;19.46;42.78;101723.69;4912922;28;123442;-74
2021/04/21 10:20:14;;;;;;;22.15;15.63;;;;;;;19.52;42.74;101731.31;4889281;28;113329;-74
2021/04/21 10:22:42;;;;;;;19.95;16.02;;;;;;;19.54;42.38;101723.16;4899797;28;114477;-75
2021/04/21 10:25:11;;;;;;;20.02;15.57;;;;;;;19.56;42.36;101735.53;4891432;28;123104;-74
2021/04/21 10:27:38;;;;;;;21.23;16.13;;;;;;;19.61;42.36;101730.69;4917898;28;124208;-74
2021/04/21 10:30:07;;;;;;;22.02;16.27;;;;;;;19.66;42.24;101733.06;4884309;28;113804;-75
2021/04/21 10:32:35;;;;;;;20.40;16.35;;;;;;;19.74;42.44;101727.16;4905437;28;114603;-75
2021/04/21 10:35:03;;;;;;;22.25;16.67;;;;;;;19.79;42.07;101733.09;4885319;28;123515;-75
2021/04/21 10:37:39;;;;;;;21.92;15.82;;;;;;;19.79;42.11;101733.09;4872341;28;122097;-75
2021/04/21 10:40:06;;;;;;;;;;;;;;;19.78;42.64;101726.88;4881652;28;113668;-75
2021/04/21 10:42:53;;;;;;;19.10;15.00;;;;;;;19.79;41.76;101722.34;4905974;28;113776;-74
2021/04/21 10:45:24;;;;;;;17.05;13.70;;;;;;;19.80;40.47;101745.59;4901876;28;123116;-75
2021/04/21 10:47:53;;;;;;;14.85;12.35;;;;;;;19.80;38.75;101729.47;4886028;28;124212;-75
2021/04/21 10:50:35;;;;;;;15.13;11.85;;;;;;;19.77;38.84;101729.66;4877229;28;113331;-75
2021/04/21 10:53:02;;;;;;;14.75;12.00;;;;;;;19.80;39.56;101729.47;4890600;28;113985;-75
2021/04/21 10:55:34;;;;;;;14.02;11.57;;;;;;;19.82;39.46;101738.28;4881262;28;123841;-74
2021/04/21 10:58:03;;;;;;;12.93;10.93;;;;;;;19.83;39.09;101734.59;4897953;28;123593;-75
2021/04/21 11:00:37;;;;;;;15.10;11.50;;;;;;;19.83;39.58;101729.22;4878794;28;114393;-75
2021/04/21 11:03:12;;;;;;;16.80;11.13;;;;;;;19.86;38.59;101734.41;4908851;28;114867;-77
2021/04/21 11:05:45;;;;;;;15.50;10.70;;;;;;;19.88;37.26;101732.44;4903264;28;123574;-77
2021/04/21 11:08:15;;;;;;;14.88;10.88;;;;;;;19.89;37.78;101728.81;4903681;28;123557;-77
2021/04/21 11:10:50;;;;;;;14.23;10.75;;;;;;;19.92;39.13;101733.94;4904473;28;114063;-77
2021/04/21 11:13:37;;;;;;;14.88;11.25;;;;;;;19.97;38.92;101729.13;4893713;28;114243;-77
2021/04/21 11:16:06;;;;;;;16.65;11.48;;;;;;;20.06;38.60;101737.50;4897749;28;123246;-77
2021/04/21 11:18:35;;;;;;;16.33;10.73;;;;;;;20.10;37.91;101741.69;4904605;28;123089;-78
2021/04/21 11:21:09;;;;;;;12.65;10.57;;;;;;;20.14;36.77;101737.81;4924829;28;114097;-76
2021/04/21 11:24:01;;;;;;;23.40;11.65;;;;;;;20.18;36.63;101736.63;4923276;28;114410;-76
2021/04/21 11:28:56;;;;;;;14.65;10.88;;;;;;;20.26;36.23;101736.94;4893736;28;123030;-78
2021/04/21 11:31:48;;;;;;;12.60;10.60;;;;;;;20.29;36.95;101736.72;4884453;28;113711;-76
2021/04/21 11:34:32;;;;;;;14.32;11.68;;;;;;;20.34;36.39;101734.56;4909083;28;114180;-75
2021/04/21 11:37:09;;;;;;;14.75;11.93;;;;;;;20.39;36.05;101740.47;4871364;28;123876;-76
2021/04/21 11:39:45;;;;;;;14.98;11.35;;;;;;;20.47;36.14;101739.03;4904933;28;124861;-77